sensor_id;sensor_type;location;lat;lon;timestamp;pressure;altitude;pressure_sealevel;temperature;humidity
20897;BME280;10608;42.600;23.398;2022-12-18T00:01:25;53416.31;;;-138.15;95.06
20897;BME280;10608;42.600;23.398;2022-12-18T00:03:53;53447.88;;;-138.15;94.05
20897;BME280;10608;42.600;23.398;2022-12-18T00:06:19;53432.09;;;-138.15;94.33
20897;BME280;10608;42.600;23.398;2022-12-18T00:08:46;53428.16;;;-138.15;94.67
20897;BME280;10608;42.600;23.398;2022-12-18T00:11:17;53449.84;;;-138.15;94.05
20897;BME280;10608;42.600;23.398;2022-12-18T00:13:43;53424.22;;;-138.15;92.79
20897;BME280;10608;42.600;23.398;2022-12-18T00:16:14;53416.31;;;-138.15;92.07
20897;BME280;10608;42.600;23.398;2022-12-18T00:18:40;53388.69;;;-138.15;92.77
20897;BME280;10608;42.600;23.398;2022-12-18T00:21:07;53424.22;;;-138.15;92.35
20897;BME280;10608;42.600;23.398;2022-12-18T00:23:34;53426.19;;;-138.15;93.34
20897;BME280;10608;42.600;23.398;2022-12-18T00:26:02;53426.19;;;-138.15;92.09
20897;BME280;10608;42.600;23.398;2022-12-18T00:28:27;53402.50;;;-138.15;92.98
20897;BME280;10608;42.600;23.398;2022-12-18T00:31:04;53449.84;;;-138.15;92.54
20897;BME280;10608;42.600;23.398;2022-12-18T00:33:30;53416.31;;;-138.15;92.54
20897;BME280;10608;42.600;23.398;2022-12-18T00:36:04;53414.34;;;-138.15;93.44
20897;BME280;10608;42.600;23.398;2022-12-18T00:38:30;53428.16;;;-138.15;93.54
20897;BME280;10608;42.600;23.398;2022-12-18T00:40:55;53424.22;;;-138.15;93.51
20897;BME280;10608;42.600;23.398;2022-12-18T00:43:20;53438.03;;;-138.15;93.10
20897;BME280;10608;42.600;23.398;2022-12-18T00:45:46;53402.50;;;-138.15;93.39
20897;BME280;10608;42.600;23.398;2022-12-18T00:48:11;53414.34;;;-138.15;92.40
20897;BME280;10608;42.600;23.398;2022-12-18T00:50:37;53445.91;;;-138.15;92.14
20897;BME280;10608;42.600;23.398;2022-12-18T00:53:03;53455.78;;;-138.15;92.47
20897;BME280;10608;42.600;23.398;2022-12-18T00:55:29;53400.53;;;-138.15;92.72
20897;BME280;10608;42.600;23.398;2022-12-18T00:57:54;53414.34;;;-138.15;92.00
20897;BME280;10608;42.600;23.398;2022-12-18T01:00:20;53424.22;;;-138.15;91.81
20897;BME280;10608;42.600;23.398;2022-12-18T01:02:45;53447.88;;;-138.15;91.34
20897;BME280;10608;42.600;23.398;2022-12-18T01:05:12;53428.16;;;-138.15;92.24
20897;BME280;10608;42.600;23.398;2022-12-18T01:07:38;53432.09;;;-138.15;91.47
20897;BME280;10608;42.600;23.398;2022-12-18T01:10:05;53447.88;;;-138.15;92.10
20897;BME280;10608;42.600;23.398;2022-12-18T01:12:32;53471.56;;;-138.15;91.64
20897;BME280;10608;42.600;23.398;2022-12-18T01:14:57;53416.31;;;-138.15;90.71
20897;BME280;10608;42.600;23.398;2022-12-18T01:17:23;53404.50;;;-138.15;90.01
20897;BME280;10608;42.600;23.398;2022-12-18T01:19:48;53416.31;;;-138.15;90.24
20897;BME280;10608;42.600;23.398;2022-12-18T01:22:14;53432.09;;;-138.15;90.75
20897;BME280;10608;42.600;23.398;2022-12-18T01:24:39;53414.34;;;-138.15;92.14
20897;BME280;10608;42.600;23.398;2022-12-18T01:27:05;53408.44;;;-138.15;92.62
20897;BME280;10608;42.600;23.398;2022-12-18T01:29:30;53416.31;;;-138.15;92.21
20897;BME280;10608;42.600;23.398;2022-12-18T01:31:56;53398.56;;;-138.15;92.58
20897;BME280;10608;42.600;23.398;2022-12-18T01:34:23;53434.06;;;-138.15;92.99
20897;BME280;10608;42.600;23.398;2022-12-18T01:36:48;53451.84;;;-138.15;92.66
20897;BME280;10608;42.600;23.398;2022-12-18T01:39:14;53418.28;;;-138.15;91.75
20897;BME280;10608;42.600;23.398;2022-12-18T01:41:41;53408.44;;;-138.15;92.70
20897;BME280;10608;42.600;23.398;2022-12-18T01:47:17;53428.16;;;-138.15;91.68
20897;BME280;10608;42.600;23.398;2022-12-18T01:49:43;53457.75;;;-138.15;90.65
20897;BME280;10608;42.600;23.398;2022-12-18T01:52:09;53430.13;;;-138.15;91.83
20897;BME280;10608;42.600;23.398;2022-12-18T01:54:34;53440.00;;;-138.15;92.40
20897;BME280;10608;42.600;23.398;2022-12-18T01:57:00;53438.03;;;-138.15;92.80
20897;BME280;10608;42.600;23.398;2022-12-18T01:59:26;53420.28;;;-138.15;92.17
20897;BME280;10608;42.600;23.398;2022-12-18T02:01:53;53416.31;;;-138.15;92.86
20897;BME280;10608;42.600;23.398;2022-12-18T02:04:23;53414.34;;;-138.15;93.49
20897;BME280;10608;42.600;23.398;2022-12-18T02:07:01;53412.38;;;-138.15;92.97
20897;BME280;10608;42.600;23.398;2022-12-18T02:09:46;53418.28;;;-138.15;93.03
20897;BME280;10608;42.600;23.398;2022-12-18T02:12:19;53440.00;;;-138.15;94.13
20897;BME280;10608;42.600;23.398;2022-12-18T02:14:59;53463.66;;;-138.15;94.12
20897;BME280;10608;42.600;23.398;2022-12-18T02:26:15;53459.72;;;-138.15;93.97
20897;BME280;10608;42.600;23.398;2022-12-18T02:28:47;53408.44;;;-138.15;93.50
20897;BME280;10608;42.600;23.398;2022-12-18T02:31:19;53428.16;;;-138.15;93.17
20897;BME280;10608;42.600;23.398;2022-12-18T02:33:47;53426.19;;;-138.15;93.92
20897;BME280;10608;42.600;23.398;2022-12-18T02:36:16;53412.38;;;-138.15;93.85
20897;BME280;10608;42.600;23.398;2022-12-18T02:38:44;53418.28;;;-138.15;93.61
20897;BME280;10608;42.600;23.398;2022-12-18T02:41:10;53449.84;;;-138.15;93.42
20897;BME280;10608;42.600;23.398;2022-12-18T02:43:35;53451.84;;;-138.15;93.05
20897;BME280;10608;42.600;23.398;2022-12-18T02:46:35;53438.03;;;-138.15;93.21
20897;BME280;10608;42.600;23.398;2022-12-18T02:51:56;53412.38;;;-138.15;92.28
20897;BME280;10608;42.600;23.398;2022-12-18T02:54:45;53424.22;;;-138.15;91.67
20897;BME280;10608;42.600;23.398;2022-12-18T02:57:24;53402.50;;;-138.15;92.05
20897;BME280;10608;42.600;23.398;2022-12-18T03:05:16;53428.16;;;-138.15;91.62
20897;BME280;10608;42.600;23.398;2022-12-18T03:10:15;53424.22;;;-138.15;90.35
20897;BME280;10608;42.600;23.398;2022-12-18T03:12:52;53441.97;;;-138.15;89.52
20897;BME280;10608;42.600;23.398;2022-12-18T03:15:28;53400.53;;;-138.15;90.52
20897;BME280;10608;42.600;23.398;2022-12-18T03:17:59;53408.44;;;-138.15;91.05
20897;BME280;10608;42.600;23.398;2022-12-18T03:20:29;53392.66;;;-138.15;89.83
20897;BME280;10608;42.600;23.398;2022-12-18T03:23:02;53412.38;;;-138.15;89.85
20897;BME280;10608;42.600;23.398;2022-12-18T03:25:30;53424.22;;;-138.15;89.49
20897;BME280;10608;42.600;23.398;2022-12-18T03:27:59;53412.38;;;-138.15;90.02
20897;BME280;10608;42.600;23.398;2022-12-18T03:30:29;53432.09;;;-138.15;89.71
20897;BME280;10608;42.600;23.398;2022-12-18T03:33:05;53412.38;;;-138.15;90.46
20897;BME280;10608;42.600;23.398;2022-12-18T03:35:36;53428.16;;;-138.15;91.68
20897;BME280;10608;42.600;23.398;2022-12-18T03:38:03;53441.97;;;-138.15;90.06
20897;BME280;10608;42.600;23.398;2022-12-18T03:41:00;53432.09;;;-138.15;89.92
20897;BME280;10608;42.600;23.398;2022-12-18T03:46:13;53388.69;;;-138.15;89.94
20897;BME280;10608;42.600;23.398;2022-12-18T03:48:48;53404.50;;;-138.15;89.36
20897;BME280;10608;42.600;23.398;2022-12-18T03:54:04;53430.13;;;-138.15;90.60
20897;BME280;10608;42.600;23.398;2022-12-18T03:56:36;53428.16;;;-138.15;90.49
20897;BME280;10608;42.600;23.398;2022-12-18T03:59:03;53400.53;;;-138.15;91.26
20897;BME280;10608;42.600;23.398;2022-12-18T04:01:37;53422.25;;;-138.15;91.84
20897;BME280;10608;42.600;23.398;2022-12-18T04:04:04;53420.28;;;-138.15;91.96
20897;BME280;10608;42.600;23.398;2022-12-18T04:06:36;53445.91;;;-138.15;90.99
20897;BME280;10608;42.600;23.398;2022-12-18T04:09:02;53400.53;;;-138.15;90.87
20897;BME280;10608;42.600;23.398;2022-12-18T04:11:29;53408.44;;;-138.15;90.83
20897;BME280;10608;42.600;23.398;2022-12-18T04:13:58;53430.13;;;-138.15;89.35
20897;BME280;10608;42.600;23.398;2022-12-18T04:16:27;53422.25;;;-138.15;89.77
20897;BME280;10608;42.600;23.398;2022-12-18T04:18:53;53388.69;;;-138.15;90.73
20897;BME280;10608;42.600;23.398;2022-12-18T04:21:19;53412.38;;;-138.15;91.02
20897;BME280;10608;42.600;23.398;2022-12-18T04:23:45;53418.28;;;-138.15;91.22
20897;BME280;10608;42.600;23.398;2022-12-18T04:26:11;53424.22;;;-138.15;91.53
20897;BME280;10608;42.600;23.398;2022-12-18T04:28:36;53420.28;;;-138.15;91.50
20897;BME280;10608;42.600;23.398;2022-12-18T04:31:03;53388.69;;;-138.15;91.60
20897;BME280;10608;42.600;23.398;2022-12-18T04:33:29;53445.91;;;-138.15;91.43
20897;BME280;10608;42.600;23.398;2022-12-18T04:35:55;53374.91;;;-138.15;91.65
20897;BME280;10608;42.600;23.398;2022-12-18T04:38:20;53440.00;;;-138.15;90.90
20897;BME280;10608;42.600;23.398;2022-12-18T04:40:46;53436.06;;;-138.15;91.44
20897;BME280;10608;42.600;23.398;2022-12-18T04:43:11;53441.97;;;-138.15;91.52
20897;BME280;10608;42.600;23.398;2022-12-18T04:45:37;53412.38;;;-138.15;91.44
20897;BME280;10608;42.600;23.398;2022-12-18T04:48:08;53451.84;;;-138.15;90.01
20897;BME280;10608;42.600;23.398;2022-12-18T04:50:36;53422.25;;;-138.15;89.26
20897;BME280;10608;42.600;23.398;2022-12-18T04:53:02;53412.38;;;-138.15;88.52
20897;BME280;10608;42.600;23.398;2022-12-18T04:55:28;53408.44;;;-138.15;88.63
20897;BME280;10608;42.600;23.398;2022-12-18T04:57:53;53455.78;;;-138.15;88.98
20897;BME280;10608;42.600;23.398;2022-12-18T05:00:19;53424.22;;;-138.15;88.82
20897;BME280;10608;42.600;23.398;2022-12-18T05:02:44;53406.47;;;-138.15;88.04
20897;BME280;10608;42.600;23.398;2022-12-18T05:05:10;53412.38;;;-138.15;87.18
20897;BME280;10608;42.600;23.398;2022-12-18T05:07:36;53428.16;;;-138.15;86.68
20897;BME280;10608;42.600;23.398;2022-12-18T05:10:01;53424.22;;;-138.15;86.81
20897;BME280;10608;42.600;23.398;2022-12-18T05:12:27;53422.25;;;-138.15;86.99
20897;BME280;10608;42.600;23.398;2022-12-18T05:14:52;53418.28;;;-138.15;87.43
20897;BME280;10608;42.600;23.398;2022-12-18T05:17:17;53443.94;;;-138.15;87.67
20897;BME280;10608;42.600;23.398;2022-12-18T05:19:43;53432.09;;;-138.15;86.77
20897;BME280;10608;42.600;23.398;2022-12-18T05:22:09;53412.38;;;-138.15;87.15
20897;BME280;10608;42.600;23.398;2022-12-18T05:24:34;53398.56;;;-138.15;86.55
20897;BME280;10608;42.600;23.398;2022-12-18T05:27:00;53408.44;;;-138.15;86.70
20897;BME280;10608;42.600;23.398;2022-12-18T05:29:25;53445.91;;;-138.15;87.42
20897;BME280;10608;42.600;23.398;2022-12-18T05:31:51;53424.22;;;-138.15;87.76
20897;BME280;10608;42.600;23.398;2022-12-18T05:34:16;53363.06;;;-138.15;87.93
20897;BME280;10608;42.600;23.398;2022-12-18T05:36:42;53445.91;;;-138.15;87.23
20897;BME280;10608;42.600;23.398;2022-12-18T05:39:07;53447.88;;;-138.15;87.08
20897;BME280;10608;42.600;23.398;2022-12-18T05:41:33;53388.69;;;-138.15;87.34
20897;BME280;10608;42.600;23.398;2022-12-18T05:43:59;53434.06;;;-138.15;87.60
20897;BME280;10608;42.600;23.398;2022-12-18T05:46:24;53376.88;;;-138.15;86.94
20897;BME280;10608;42.600;23.398;2022-12-18T05:48:50;53357.13;;;-138.15;86.80
20897;BME280;10608;42.600;23.398;2022-12-18T05:51:18;53404.50;;;-138.15;86.87
20897;BME280;10608;42.600;23.398;2022-12-18T05:53:44;53463.66;;;-138.15;87.10
20897;BME280;10608;42.600;23.398;2022-12-18T05:56:14;53451.84;;;-138.15;88.05
20897;BME280;10608;42.600;23.398;2022-12-18T05:58:40;53440.00;;;-138.15;87.51
20897;BME280;10608;42.600;23.398;2022-12-18T06:01:15;53392.66;;;-138.15;87.06
20897;BME280;10608;42.600;23.398;2022-12-18T06:03:41;53396.59;;;-138.15;86.05
20897;BME280;10608;42.600;23.398;2022-12-18T06:06:21;53449.84;;;-138.15;85.29
20897;BME280;10608;42.600;23.398;2022-12-18T06:08:48;53440.00;;;-138.15;84.70
20897;BME280;10608;42.600;23.398;2022-12-18T06:11:17;53406.47;;;-138.15;84.57
20897;BME280;10608;42.600;23.398;2022-12-18T06:13:43;53412.38;;;-138.15;84.27
20897;BME280;10608;42.600;23.398;2022-12-18T06:16:08;53438.03;;;-138.15;84.07
20897;BME280;10608;42.600;23.398;2022-12-18T06:18:34;53445.91;;;-138.15;84.07
20897;BME280;10608;42.600;23.398;2022-12-18T06:21:00;53420.28;;;-138.15;83.63
20897;BME280;10608;42.600;23.398;2022-12-18T06:23:25;53372.91;;;-138.15;83.70
20897;BME280;10608;42.600;23.398;2022-12-18T06:25:51;53390.69;;;-138.15;84.10
20897;BME280;10608;42.600;23.398;2022-12-18T06:28:17;53402.50;;;-138.15;82.83
20897;BME280;10608;42.600;23.398;2022-12-18T06:30:46;53434.06;;;-138.15;84.21
20897;BME280;10608;42.600;23.398;2022-12-18T06:33:12;53408.44;;;-138.15;82.80
20897;BME280;10608;42.600;23.398;2022-12-18T06:35:37;53410.41;;;-138.15;83.60
20897;BME280;10608;42.600;23.398;2022-12-18T06:38:03;53396.59;;;-138.15;82.93
20897;BME280;10608;42.600;23.398;2022-12-18T06:40:28;53404.50;;;-138.15;83.94
20897;BME280;10608;42.600;23.398;2022-12-18T06:42:54;53416.31;;;-138.15;83.84
20897;BME280;10608;42.600;23.398;2022-12-18T06:45:19;53420.28;;;-138.15;83.04
20897;BME280;10608;42.600;23.398;2022-12-18T06:47:45;53406.47;;;-138.15;82.49
20897;BME280;10608;42.600;23.398;2022-12-18T06:50:11;53398.56;;;-138.15;82.54
20897;BME280;10608;42.600;23.398;2022-12-18T06:52:37;53406.47;;;-138.15;82.50
20897;BME280;10608;42.600;23.398;2022-12-18T06:55:04;53430.13;;;-138.15;81.61
20897;BME280;10608;42.600;23.398;2022-12-18T06:57:30;53412.38;;;-138.15;80.72
20897;BME280;10608;42.600;23.398;2022-12-18T06:59:55;53400.53;;;-138.15;81.72
20897;BME280;10608;42.600;23.398;2022-12-18T07:02:21;53428.16;;;-138.15;81.89
20897;BME280;10608;42.600;23.398;2022-12-18T07:04:49;53396.59;;;-138.15;81.83
20897;BME280;10608;42.600;23.398;2022-12-18T07:07:15;53404.50;;;-138.15;80.56
20897;BME280;10608;42.600;23.398;2022-12-18T07:09:40;53406.47;;;-138.15;79.80
20897;BME280;10608;42.600;23.398;2022-12-18T07:12:06;53420.28;;;-138.15;80.25
20897;BME280;10608;42.600;23.398;2022-12-18T07:14:33;53402.50;;;-138.15;81.05
20897;BME280;10608;42.600;23.398;2022-12-18T07:16:58;53408.44;;;-138.15;79.34
20897;BME280;10608;42.600;23.398;2022-12-18T07:19:23;53384.75;;;-138.15;79.06
20897;BME280;10608;42.600;23.398;2022-12-18T07:21:50;53384.75;;;-138.15;77.89
20897;BME280;10608;42.600;23.398;2022-12-18T07:24:17;53412.38;;;-138.15;78.06
20897;BME280;10608;42.600;23.398;2022-12-18T07:26:42;53376.88;;;-138.15;78.20
20897;BME280;10608;42.600;23.398;2022-12-18T07:29:07;53432.09;;;-138.15;77.24
20897;BME280;10608;42.600;23.398;2022-12-18T07:31:33;53408.44;;;-138.15;78.95
20897;BME280;10608;42.600;23.398;2022-12-18T07:33:58;53408.44;;;-138.15;78.07
20897;BME280;10608;42.600;23.398;2022-12-18T07:36:24;53408.44;;;-138.15;78.67
20897;BME280;10608;42.600;23.398;2022-12-18T07:38:50;53378.84;;;-138.15;77.78
20897;BME280;10608;42.600;23.398;2022-12-18T07:41:17;53404.50;;;-138.15;77.98
20897;BME280;10608;42.600;23.398;2022-12-18T07:43:44;53406.47;;;-138.15;77.46
20897;BME280;10608;42.600;23.398;2022-12-18T07:46:11;53434.06;;;-138.15;77.87
20897;BME280;10608;42.600;23.398;2022-12-18T07:48:42;53398.56;;;-138.15;75.89
20897;BME280;10608;42.600;23.398;2022-12-18T07:51:08;53430.13;;;-138.15;76.44
20897;BME280;10608;42.600;23.398;2022-12-18T07:53:41;53408.44;;;-138.15;76.15
20897;BME280;10608;42.600;23.398;2022-12-18T07:56:09;53412.38;;;-138.15;76.19
20897;BME280;10608;42.600;23.398;2022-12-18T07:58:35;53412.38;;;-138.15;76.22
20897;BME280;10608;42.600;23.398;2022-12-18T08:01:08;53440.00;;;-138.15;75.66
20897;BME280;10608;42.600;23.398;2022-12-18T08:03:35;53384.75;;;-138.15;76.87
20897;BME280;10608;42.600;23.398;2022-12-18T08:06:05;53394.63;;;-138.15;76.18
20897;BME280;10608;42.600;23.398;2022-12-18T08:08:32;53390.69;;;-138.15;76.10
20897;BME280;10608;42.600;23.398;2022-12-18T08:10:58;53400.53;;;-138.15;74.12
20897;BME280;10608;42.600;23.398;2022-12-18T08:13:24;53416.31;;;-138.15;73.30
20897;BME280;10608;42.600;23.398;2022-12-18T08:16:00;53414.34;;;-138.15;74.44
20897;BME280;10608;42.600;23.398;2022-12-18T08:18:26;53392.66;;;-138.15;75.42
20897;BME280;10608;42.600;23.398;2022-12-18T08:20:52;53416.31;;;-138.15;74.92
20897;BME280;10608;42.600;23.398;2022-12-18T08:23:18;53398.56;;;-138.15;75.61
20897;BME280;10608;42.600;23.398;2022-12-18T08:25:43;53432.09;;;-138.15;74.30
20897;BME280;10608;42.600;23.398;2022-12-18T08:28:09;53365.03;;;-138.15;74.00
20897;BME280;10608;42.600;23.398;2022-12-18T08:30:35;53392.66;;;-138.15;74.88
20897;BME280;10608;42.600;23.398;2022-12-18T08:33:01;53380.81;;;-138.15;75.28
20897;BME280;10608;42.600;23.398;2022-12-18T08:35:26;53398.56;;;-138.15;75.94
20897;BME280;10608;42.600;23.398;2022-12-18T08:37:52;53396.59;;;-138.15;76.71
20897;BME280;10608;42.600;23.398;2022-12-18T08:40:17;53363.06;;;-138.15;74.90
20897;BME280;10608;42.600;23.398;2022-12-18T08:42:43;53424.22;;;-138.15;75.69
20897;BME280;10608;42.600;23.398;2022-12-18T08:45:27;53428.16;;;-138.15;74.52
20897;BME280;10608;42.600;23.398;2022-12-18T08:47:53;53414.34;;;-138.15;75.38
20897;BME280;10608;42.600;23.398;2022-12-18T08:50:19;53414.34;;;-138.15;76.08
20897;BME280;10608;42.600;23.398;2022-12-18T08:52:45;53414.34;;;-138.15;76.27
20897;BME280;10608;42.600;23.398;2022-12-18T08:55:10;53359.13;;;-138.15;75.80
20897;BME280;10608;42.600;23.398;2022-12-18T08:57:38;53449.84;;;-138.15;76.06
20897;BME280;10608;42.600;23.398;2022-12-18T09:00:04;53440.00;;;-138.15;76.03
20897;BME280;10608;42.600;23.398;2022-12-18T09:02:30;53406.47;;;-138.15;75.91
20897;BME280;10608;42.600;23.398;2022-12-18T09:04:55;53408.44;;;-138.15;75.34
20897;BME280;10608;42.600;23.398;2022-12-18T09:07:21;53440.00;;;-138.15;75.13
20897;BME280;10608;42.600;23.398;2022-12-18T09:09:46;53428.16;;;-138.15;75.95
20897;BME280;10608;42.600;23.398;2022-12-18T09:12:12;53440.00;;;-138.15;74.49
20897;BME280;10608;42.600;23.398;2022-12-18T09:14:37;53408.44;;;-138.15;74.25
20897;BME280;10608;42.600;23.398;2022-12-18T09:17:03;53428.16;;;-138.15;74.06
20897;BME280;10608;42.600;23.398;2022-12-18T09:19:28;53420.28;;;-138.15;74.94
20897;BME280;10608;42.600;23.398;2022-12-18T09:21:54;53408.44;;;-138.15;74.46
20897;BME280;10608;42.600;23.398;2022-12-18T09:24:19;53392.66;;;-138.15;74.94
20897;BME280;10608;42.600;23.398;2022-12-18T09:26:45;53402.50;;;-138.15;73.87
20897;BME280;10608;42.600;23.398;2022-12-18T09:29:10;53420.28;;;-138.15;73.35
20897;BME280;10608;42.600;23.398;2022-12-18T09:31:36;53402.50;;;-138.15;74.38
20897;BME280;10608;42.600;23.398;2022-12-18T09:34:06;53394.63;;;-138.15;73.75
20897;BME280;10608;42.600;23.398;2022-12-18T09:36:32;53428.16;;;-138.15;72.78
20897;BME280;10608;42.600;23.398;2022-12-18T09:38:57;53370.94;;;-138.15;73.13
20897;BME280;10608;42.600;23.398;2022-12-18T09:41:51;53416.31;;;-138.15;74.14
20897;BME280;10608;42.600;23.398;2022-12-18T09:44:31;53420.28;;;-138.15;72.97
20897;BME280;10608;42.600;23.398;2022-12-18T09:47:12;53402.50;;;-138.15;73.93
20897;BME280;10608;42.600;23.398;2022-12-18T09:49:44;53396.59;;;-138.15;74.56
20897;BME280;10608;42.600;23.398;2022-12-18T09:55:05;53394.63;;;-138.15;74.03
20897;BME280;10608;42.600;23.398;2022-12-18T09:57:35;53436.06;;;-138.15;73.82
20897;BME280;10608;42.600;23.398;2022-12-18T10:00:15;53392.66;;;-138.15;73.04
20897;BME280;10608;42.600;23.398;2022-12-18T10:02:42;53416.31;;;-138.15;70.85
20897;BME280;10608;42.600;23.398;2022-12-18T10:05:16;53414.34;;;-138.15;70.51
20897;BME280;10608;42.600;23.398;2022-12-18T10:08:16;53370.94;;;-138.15;70.65
20897;BME280;10608;42.600;23.398;2022-12-18T10:10:53;53416.31;;;-138.15;72.52
20897;BME280;10608;42.600;23.398;2022-12-18T10:21:21;53424.22;;;-138.15;69.51
20897;BME280;10608;42.600;23.398;2022-12-18T10:24:39;53390.69;;;-138.15;69.44
20897;BME280;10608;42.600;23.398;2022-12-18T10:27:09;53390.69;;;-138.15;70.03
20897;BME280;10608;42.600;23.398;2022-12-18T10:29:36;53412.38;;;-138.15;68.70
20897;BME280;10608;42.600;23.398;2022-12-18T10:32:02;53412.38;;;-138.15;67.87
20897;BME280;10608;42.600;23.398;2022-12-18T10:34:27;53392.66;;;-138.15;68.84
20897;BME280;10608;42.600;23.398;2022-12-18T10:36:53;53408.44;;;-138.15;67.25
20897;BME280;10608;42.600;23.398;2022-12-18T10:39:24;53372.91;;;-138.15;69.14
20897;BME280;10608;42.600;23.398;2022-12-18T10:41:51;53396.59;;;-138.15;68.36
20897;BME280;10608;42.600;23.398;2022-12-18T10:44:23;53428.16;;;-138.15;69.33
20897;BME280;10608;42.600;23.398;2022-12-18T10:46:54;53441.97;;;-138.15;69.25
20897;BME280;10608;42.600;23.398;2022-12-18T10:49:26;53388.69;;;-138.15;68.04
20897;BME280;10608;42.600;23.398;2022-12-18T10:52:07;53447.88;;;-138.15;68.89
20897;BME280;10608;42.600;23.398;2022-12-18T10:54:37;53396.59;;;-138.15;69.14
20897;BME280;10608;42.600;23.398;2022-12-18T10:59:53;53365.03;;;-138.15;69.03
20897;BME280;10608;42.600;23.398;2022-12-18T11:02:49;53400.53;;;-138.15;70.61
20897;BME280;10608;42.600;23.398;2022-12-18T11:05:33;53400.53;;;-138.15;69.60
20897;BME280;10608;42.600;23.398;2022-12-18T11:07:59;53406.47;;;-138.15;70.12
20897;BME280;10608;42.600;23.398;2022-12-18T11:10:33;53392.66;;;-138.15;67.93
20897;BME280;10608;42.600;23.398;2022-12-18T11:13:11;53398.56;;;-138.15;69.50
20897;BME280;10608;42.600;23.398;2022-12-18T11:15:40;53418.28;;;-138.15;68.85
20897;BME280;10608;42.600;23.398;2022-12-18T11:18:16;53400.53;;;-138.15;67.59
20897;BME280;10608;42.600;23.398;2022-12-18T11:20:50;53365.03;;;-138.15;66.99
20897;BME280;10608;42.600;23.398;2022-12-18T11:23:16;53361.09;;;-138.15;66.52
20897;BME280;10608;42.600;23.398;2022-12-18T11:25:54;53420.28;;;-138.15;66.30
20897;BME280;10608;42.600;23.398;2022-12-18T11:28:40;53374.91;;;-138.15;65.99
20897;BME280;10608;42.600;23.398;2022-12-18T11:31:20;53398.56;;;-138.15;66.85
20897;BME280;10608;42.600;23.398;2022-12-18T11:34:08;53416.31;;;-138.15;67.02
20897;BME280;10608;42.600;23.398;2022-12-18T11:36:42;53355.16;;;-138.15;66.56
20897;BME280;10608;42.600;23.398;2022-12-18T11:39:31;53410.41;;;-138.15;66.81
20897;BME280;10608;42.600;23.398;2022-12-18T11:42:04;53400.53;;;-138.15;66.75
20897;BME280;10608;42.600;23.398;2022-12-18T11:44:52;53398.56;;;-138.15;66.93
20897;BME280;10608;42.600;23.398;2022-12-18T11:47:31;53408.44;;;-138.15;66.37
20897;BME280;10608;42.600;23.398;2022-12-18T11:50:05;53408.44;;;-138.15;65.16
20897;BME280;10608;42.600;23.398;2022-12-18T11:52:39;53388.69;;;-138.15;65.60
20897;BME280;10608;42.600;23.398;2022-12-18T11:55:12;53392.66;;;-138.15;65.60
20897;BME280;10608;42.600;23.398;2022-12-18T12:00:28;53384.75;;;-138.15;64.55
20897;BME280;10608;42.600;23.398;2022-12-18T12:08:30;53396.59;;;-138.15;60.00
20897;BME280;10608;42.600;23.398;2022-12-18T12:13:59;53380.81;;;-138.15;59.68
20897;BME280;10608;42.600;23.398;2022-12-18T12:19:24;53424.22;;;-138.15;59.73
20897;BME280;10608;42.600;23.398;2022-12-18T12:22:19;53380.81;;;-138.15;61.62
20897;BME280;10608;42.600;23.398;2022-12-18T12:27:41;53380.81;;;-138.15;61.13
20897;BME280;10608;42.600;23.398;2022-12-18T12:30:20;53368.97;;;-138.15;60.74
20897;BME280;10608;42.600;23.398;2022-12-18T12:38:34;53416.31;;;-138.15;61.52
20897;BME280;10608;42.600;23.398;2022-12-18T12:40:59;53424.22;;;-138.15;61.22
20897;BME280;10608;42.600;23.398;2022-12-18T12:43:41;53408.44;;;-138.15;61.54
20897;BME280;10608;42.600;23.398;2022-12-18T12:46:13;53410.41;;;-138.15;62.24
20897;BME280;10608;42.600;23.398;2022-12-18T12:48:54;53414.34;;;-138.15;61.93
20897;BME280;10608;42.600;23.398;2022-12-18T12:51:28;53400.53;;;-138.15;62.35
20897;BME280;10608;42.600;23.398;2022-12-18T12:53:56;53386.72;;;-138.15;62.32
20897;BME280;10608;42.600;23.398;2022-12-18T12:56:25;53412.38;;;-138.15;62.35
20897;BME280;10608;42.600;23.398;2022-12-18T13:07:20;53367.00;;;-138.15;61.78
20897;BME280;10608;42.600;23.398;2022-12-18T13:12:36;53402.50;;;-138.15;60.96
20897;BME280;10608;42.600;23.398;2022-12-18T13:20:38;53388.69;;;-138.15;61.15
20897;BME280;10608;42.600;23.398;2022-12-18T13:25:52;53408.44;;;-138.15;62.33
20897;BME280;10608;42.600;23.398;2022-12-18T13:30:59;53390.69;;;-138.15;63.15
20897;BME280;10608;42.600;23.398;2022-12-18T13:38:44;53390.69;;;-138.15;65.07
20897;BME280;10608;42.600;23.398;2022-12-18T13:43:51;53396.59;;;-138.15;63.86
20897;BME280;10608;42.600;23.398;2022-12-18T13:51:48;53410.41;;;-138.15;64.55
20897;BME280;10608;42.600;23.398;2022-12-18T13:54:36;53380.81;;;-138.15;65.99
20897;BME280;10608;42.600;23.398;2022-12-18T13:57:03;53357.13;;;-138.15;64.46
20897;BME280;10608;42.600;23.398;2022-12-18T13:59:39;53392.66;;;-138.15;64.28
20897;BME280;10608;42.600;23.398;2022-12-18T14:02:25;53428.16;;;-138.15;62.63
20897;BME280;10608;42.600;23.398;2022-12-18T14:04:52;53408.44;;;-138.15;62.24
20897;BME280;10608;42.600;23.398;2022-12-18T14:07:24;53428.16;;;-138.15;62.50
20897;BME280;10608;42.600;23.398;2022-12-18T14:09:59;53410.41;;;-138.15;63.30
20897;BME280;10608;42.600;23.398;2022-12-18T14:12:28;53394.63;;;-138.15;63.17
20897;BME280;10608;42.600;23.398;2022-12-18T14:18:00;53392.66;;;-138.15;61.73
20897;BME280;10608;42.600;23.398;2022-12-18T14:20:28;53414.34;;;-138.15;61.65
20897;BME280;10608;42.600;23.398;2022-12-18T14:22:55;53390.69;;;-138.15;61.46
20897;BME280;10608;42.600;23.398;2022-12-18T14:25:24;53396.59;;;-138.15;62.17